South Seaville, New Jersey
Current Conditions -  °F | °C
As of 1:35 AM on Thursday 23 Oct 2014 (Local Time) from KWWD Reporting Station
Overcast Overcast  
Wind Chill: 54°   Ceiling: 2200
Heat Index: 54°   Visibility: 10mi
Dew Point: 46°   Wind: 14mph
Humidity: 77%   Direction: 320°NW
Pressure: 29.73"   Gusts: 26mph
Location:  39.18°N, 74.76°W
Report Text: KWWD 230535Z AUTO 32012G23KT 10SM SCT015 BKN022 OVC028 12/08 A2973 RMK AO1
Loading
Personal Weather Stations






























Interactive Weather Map
Tropical Storm Tracking
New forecast layout! Learn more

10-Day Weather Forecast

Advertisements
Track Severe Weather on mobile